Time;durP1;ratioP1;P1;durP2;ratioP2;P2;SDS_P1;SDS_P2;PMS_P1;PMS_P2;Temp;Humidity;BMP_temperature;BMP_pressure;BME280_temperature;BME280_humidity;BME280_pressure;Samples;Min_cycle;Max_cycle;Signal;HPM_P1;HPM_P2
2021/10/06 00:00:07;;;;;;;3.37;0.80;;;;;;;13.11;87.76;96161.84;4975845;28;20183;-58
2021/10/06 00:02:33;;;;;;;2.80;0.80;;;;;;;12.84;88.91;96163.59;4975927;28;20182;-58
2021/10/06 00:04:58;;;;;;;3.47;1.00;;;;;;;12.90;88.04;96169.72;4975537;28;20513;-58
2021/10/06 00:07:23;;;;;;;1.10;0.80;;;;;;;12.83;89.07;96169.88;4974833;28;20262;-58
2021/10/06 00:09:49;;;;;;;3.90;0.80;;;;;;;12.93;88.15;96175.31;4976030;28;20178;-58
2021/10/06 00:12:14;;;;;;;1.10;0.80;;;;;;;12.87;88.84;96178.91;4975864;28;20562;-54
2021/10/06 00:14:40;;;;;;;1.30;0.97;;;;;;;12.97;88.46;96183.53;4975267;28;20205;-58
2021/10/06 00:17:05;;;;;;;5.00;1.00;;;;;;;12.88;88.81;96174.44;4975843;28;20177;-58
2021/10/06 00:19:31;;;;;;;1.17;1.07;;;;;;;12.88;88.50;96183.13;4975834;28;20201;-58
2021/10/06 00:21:57;;;;;;;2.73;0.90;;;;;;;12.69;89.88;96187.09;4975487;28;20700;-54
2021/10/06 00:24:24;;;;;;;1.90;1.03;;;;;;;12.39;91.26;96184.81;4975265;28;20159;-54
2021/10/06 00:26:49;;;;;;;1.43;0.90;;;;;;;12.26;91.87;96190.44;4975620;28;20438;-58
2021/10/06 00:29:24;;;;;;;1.67;1.20;;;;;;;12.16;92.03;96200.00;5070900;28;20515;-55
2021/10/06 00:31:49;;;;;;;2.33;1.20;;;;;;;12.15;91.73;96199.22;5070767;28;20503;-60
2021/10/06 00:34:15;;;;;;;1.13;0.90;;;;;;;11.93;93.49;96200.94;5070458;28;20253;-55
2021/10/06 00:36:41;;;;;;;1.53;1.30;;;;;;;11.86;93.74;96200.31;5070793;28;20199;-60
2021/10/06 00:39:06;;;;;;;2.53;1.17;;;;;;;11.67;94.98;96191.00;5070828;28;20167;-54
2021/10/06 00:41:32;;;;;;;1.30;1.03;;;;;;;11.73;95.23;96203.22;5070783;28;20190;-59
2021/10/06 00:43:57;;;;;;;3.00;1.17;;;;;;;11.71;95.32;96186.06;5070170;28;20167;-55
2021/10/06 00:46:23;;;;;;;2.77;1.10;;;;;;;11.76;94.73;96202.75;5070455;28;20814;-59
2021/10/06 00:48:48;;;;;;;3.23;1.07;;;;;;;11.75;95.39;96189.81;5070763;28;20224;-59
2021/10/06 00:51:13;;;;;;;2.93;0.80;;;;;;;11.83;94.74;96186.81;5070484;28;20179;-59
2021/10/06 00:53:39;;;;;;;6.33;1.80;;;;;;;11.64;95.32;96185.38;5070005;28;20202;-60
2021/10/06 00:56:05;;;;;;;1.30;0.80;;;;;;;11.69;95.17;96182.88;5070485;28;20182;-55
2021/10/06 00:58:31;;;;;;;2.20;0.90;;;;;;;11.80;93.84;96192.53;5070174;28;20406;-60
2021/10/06 01:00:57;;;;;;;2.00;1.10;;;;;;;12.02;93.64;96191.63;5070162;28;20533;-55
2021/10/06 01:03:22;;;;;;;4.07;0.97;;;;;;;11.92;94.09;96188.81;5069776;28;20437;-55
2021/10/06 01:05:49;;;;;;;0.83;0.80;;;;;;;11.81;94.22;96187.03;5070234;28;20187;-59
2021/10/06 01:08:15;;;;;;;3.70;0.97;;;;;;;11.77;94.23;96191.19;5070037;28;20183;-55
2021/10/06 01:10:41;;;;;;;2.10;0.90;;;;;;;11.66;94.60;96185.97;5070195;28;20447;-54
2021/10/06 01:13:07;;;;;;;4.00;1.00;;;;;;;11.71;95.26;96186.88;5069554;28;20507;-59
2021/10/06 01:15:32;;;;;;;2.87;1.00;;;;;;;11.67;94.91;96185.75;5069753;28;20511;-54
2021/10/06 01:17:58;;;;;;;2.43;0.90;;;;;;;11.71;94.80;96181.59;5069759;28;20409;-55
2021/10/06 01:20:23;;;;;;;2.50;1.00;;;;;;;11.68;94.16;96173.38;5070140;28;20174;-60
2021/10/06 01:22:49;;;;;;;1.47;1.33;;;;;;;11.67;94.07;96180.47;5069607;28;20533;-55
2021/10/06 01:25:16;;;;;;;1.53;0.93;;;;;;;11.54;94.55;96174.69;5069794;28;20198;-55
2021/10/06 01:27:42;;;;;;;1.20;0.93;;;;;;;11.66;94.33;96188.63;5069502;28;20202;-55
2021/10/06 01:30:10;;;;;;;4.10;1.30;;;;;;;11.76;93.17;96194.84;5069763;28;20414;-55
2021/10/06 01:32:37;;;;;;;1.93;1.10;;;;;;;11.93;92.31;96197.50;5069349;28;20405;-58
2021/10/06 01:35:05;;;;;;;1.43;1.00;;;;;;;11.91;91.82;96197.75;5069586;28;20444;-55
2021/10/06 01:37:31;;;;;;;3.60;0.93;;;;;;;12.06;91.12;96200.66;5069454;28;20764;-55
2021/10/06 01:39:57;;;;;;;2.90;1.20;;;;;;;12.32;89.92;96201.81;5060517;28;20486;-55
2021/10/06 01:42:22;;;;;;;1.50;1.10;;;;;;;12.41;89.25;96209.09;5056316;28;21019;-55
2021/10/06 01:44:48;;;;;;;1.90;1.00;;;;;;;12.54;88.70;96221.16;5055692;28;20579;-55
2021/10/06 01:47:24;;;;;;;1.40;0.90;;;;;;;12.70;87.69;96230.09;5056161;28;20205;-55
2021/10/06 01:49:50;;;;;;;1.60;1.00;;;;;;;12.78;87.74;96227.03;5056048;28;20626;-60
2021/10/06 01:52:21;;;;;;;2.27;0.83;;;;;;;12.87;87.02;96230.84;5056135;28;20422;-59
2021/10/06 01:54:47;;;;;;;2.40;1.10;;;;;;;12.79;87.04;96247.88;5055444;28;20402;-55
2021/10/06 01:57:13;;;;;;;1.27;1.10;;;;;;;12.95;86.60;96249.72;5055799;28;20410;-59
2021/10/06 01:59:40;;;;;;;0.97;0.77;;;;;;;13.12;85.29;96250.50;5055984;28;20175;-59
2021/10/06 02:02:06;;;;;;;2.57;1.10;;;;;;;13.20;85.71;96251.91;5055788;28;20168;-55
2021/10/06 02:04:31;;;;;;;1.67;0.97;;;;;;;12.97;84.86;96250.25;5055520;28;20881;-55
2021/10/06 02:06:57;;;;;;;1.60;0.90;;;;;;;13.16;84.84;96250.78;5055744;28;20661;-59
2021/10/06 02:09:22;;;;;;;2.97;0.90;;;;;;;13.15;84.19;96251.84;5055783;28;20214;-58
2021/10/06 02:11:47;;;;;;;2.43;1.03;;;;;;;13.33;83.42;96262.13;5055562;28;20613;-57
2021/10/06 02:14:14;;;;;;;1.00;0.90;;;;;;;13.34;83.11;96258.41;5055307;28;20206;-57
2021/10/06 02:16:40;;;;;;;4.13;1.13;;;;;;;13.34;83.36;96261.88;5055432;28;20206;-57
2021/10/06 02:19:06;;;;;;;2.43;1.10;;;;;;;13.33;82.84;96251.56;5055539;28;20394;-52
2021/10/06 02:21:31;;;;;;;1.90;0.80;;;;;;;13.31;83.12;96253.63;5055597;28;20405;-56
2021/10/06 02:23:56;;;;;;;1.47;0.80;;;;;;;13.12;83.94;96254.97;5053592;28;20270;-56
2021/10/06 02:26:22;;;;;;;2.00;0.90;;;;;;;13.19;83.27;96252.94;5055300;28;20198;-52
2021/10/06 02:28:47;;;;;;;3.20;0.80;;;;;;;13.10;83.24;96263.13;5055131;28;20217;-52
2021/10/06 02:31:12;;;;;;;1.23;0.70;;;;;;;13.15;83.35;96257.13;5055320;28;20179;-57
2021/10/06 02:33:38;;;;;;;1.13;0.80;;;;;;;13.10;83.56;96257.84;5054911;28;20262;-56
2021/10/06 02:36:03;;;;;;;1.20;1.10;;;;;;;13.15;83.66;96262.41;5055251;28;20195;-52
2021/10/06 02:38:28;;;;;;;3.07;0.80;;;;;;;13.25;83.38;96265.97;5055210;28;20222;-56
2021/10/06 02:40:54;;;;;;;1.70;0.70;;;;;;;13.31;83.13;96267.63;5055615;28;20183;-52
2021/10/06 02:43:19;;;;;;;1.50;0.87;;;;;;;13.39;82.76;96269.84;5054571;28;20178;-56
2021/10/06 02:45:45;;;;;;;1.97;1.20;;;;;;;13.42;82.49;96271.19;5054932;28;20204;-52
2021/10/06 02:48:10;;;;;;;1.33;0.90;;;;;;;13.46;81.73;96269.63;5055019;28;20191;-58
2021/10/06 02:50:36;;;;;;;2.30;1.00;;;;;;;13.45;81.84;96265.41;5054291;28;20565;-53
2021/10/06 02:53:01;;;;;;;0.80;0.80;;;;;;;13.37;81.95;96264.00;5054317;28;20195;-52
2021/10/06 02:55:28;;;;;;;1.10;0.93;;;;;;;13.40;81.63;96270.66;5054638;28;20219;-57
2021/10/06 02:57:54;;;;;;;4.43;1.97;;;;;;;13.37;81.58;96279.84;5054855;28;20258;-52
2021/10/06 03:00:19;;;;;;;3.67;0.80;;;;;;;13.37;81.44;96276.38;5054620;28;20494;-58
2021/10/06 03:02:45;;;;;;;5.33;1.10;;;;;;;13.25;81.37;96281.00;5054315;28;20629;-56
2021/10/06 03:05:12;;;;;;;1.97;0.87;;;;;;;13.32;81.30;96276.34;5054617;28;20198;-52
2021/10/06 03:07:38;;;;;;;2.00;0.80;;;;;;;13.27;81.97;96277.09;5054305;28;20270;-56
2021/10/06 03:10:05;;;;;;;1.10;1.07;;;;;;;13.15;82.42;96281.66;5054515;28;20422;-56
2021/10/06 03:12:30;;;;;;;1.70;0.90;;;;;;;13.09;82.48;96273.91;5054552;28;20410;-57
2021/10/06 03:14:56;;;;;;;6.53;1.37;;;;;;;12.87;83.10;96288.88;5053966;28;20441;-56
2021/10/06 03:17:21;;;;;;;0.90;0.90;;;;;;;12.85;83.43;96291.75;5054522;28;20163;-58
2021/10/06 03:19:47;;;;;;;2.60;1.00;;;;;;;12.87;83.93;96299.41;5054267;28;20519;-52
2021/10/06 03:22:13;;;;;;;3.17;1.30;;;;;;;12.93;83.66;96301.09;5054307;28;20167;-52
2021/10/06 03:24:38;;;;;;;2.20;1.07;;;;;;;12.98;83.01;96306.44;5053785;28;20195;-56
2021/10/06 03:27:03;;;;;;;3.13;1.03;;;;;;;12.93;82.97;96306.38;5054124;28;20524;-56
2021/10/06 03:29:29;;;;;;;4.17;1.20;;;;;;;12.78;83.55;96306.94;5054266;28;20179;-58
2021/10/06 03:31:55;;;;;;;1.33;0.90;;;;;;;12.62;84.33;96312.19;5054204;28;20679;-59
2021/10/06 03:34:20;;;;;;;3.70;1.00;;;;;;;12.63;83.98;96304.06;5053608;28;20589;-59
2021/10/06 03:36:46;;;;;;;4.03;1.07;;;;;;;12.73;84.16;96304.22;5054023;28;20270;-59
2021/10/06 03:39:11;;;;;;;2.73;1.13;;;;;;;12.73;84.23;96313.97;5053854;28;20163;-59
2021/10/06 03:41:36;;;;;;;1.43;1.10;;;;;;;12.80;83.98;96310.13;5054096;28;20167;-59
2021/10/06 03:44:02;;;;;;;1.13;0.87;;;;;;;12.82;83.77;96313.34;5053637;28;20645;-59
2021/10/06 03:46:27;;;;;;;1.13;0.80;;;;;;;12.89;83.49;96316.59;5053801;28;20199;-55
2021/10/06 03:48:53;;;;;;;1.17;1.00;;;;;;;12.78;84.16;96311.41;5053863;28;20723;-60
2021/10/06 03:51:19;;;;;;;1.30;1.20;;;;;;;12.79;84.13;96313.00;5053828;28;20721;-59
2021/10/06 03:53:44;;;;;;;1.43;0.90;;;;;;;12.68;84.74;96327.84;5052494;28;20175;-55
2021/10/06 03:56:10;;;;;;;1.43;1.20;;;;;;;12.50;85.67;96324.66;5053514;28;20494;-59
2021/10/06 03:58:35;;;;;;;5.13;1.17;;;;;;;12.41;86.56;96321.59;5053683;28;20262;-59
2021/10/06 04:01:01;;;;;;;2.40;1.63;;;;;;;12.45;86.46;96324.59;5053776;28;20250;-59
2021/10/06 04:03:26;;;;;;;1.93;1.10;;;;;;;12.39;86.14;96328.97;5053036;28;20194;-59
2021/10/06 04:05:52;;;;;;;1.33;1.10;;;;;;;12.35;87.20;96330.47;5053430;28;20426;-59
2021/10/06 04:08:17;;;;;;;1.80;1.37;;;;;;;12.26;87.18;96331.88;5053573;28;20223;-54
2021/10/06 04:10:43;;;;;;;1.70;1.20;;;;;;;12.06;88.16;96329.69;5053954;28;20183;-59
2021/10/06 04:13:09;;;;;;;2.07;1.10;;;;;;;11.97;88.69;96346.09;5053327;28;20186;-55
2021/10/06 04:15:34;;;;;;;6.93;1.27;;;;;;;12.09;88.15;96342.38;5053347;28;20476;-55
2021/10/06 04:18:02;;;;;;;1.20;0.97;;;;;;;12.18;87.82;96350.69;5053655;28;20509;-55
2021/10/06 04:20:28;;;;;;;6.43;1.20;;;;;;;12.04;88.33;96344.94;5053418;28;20172;-59
2021/10/06 04:22:53;;;;;;;1.60;1.00;;;;;;;12.03;88.45;96351.22;5052924;28;21242;-59
2021/10/06 04:25:18;;;;;;;1.40;1.00;;;;;;;12.08;87.81;96353.94;5053210;28;20665;-55
2021/10/06 04:27:44;;;;;;;2.77;1.67;;;;;;;12.04;88.10;96350.19;5053067;28;20230;-59
2021/10/06 04:30:10;;;;;;;1.83;1.17;;;;;;;12.08;88.43;96351.28;5053426;28;20183;-55
2021/10/06 04:32:36;;;;;;;1.37;1.00;;;;;;;12.10;88.03;96359.78;5053017;28;20183;-59
2021/10/06 04:35:01;;;;;;;2.23;1.30;;;;;;;12.08;88.20;96361.06;5053184;28;20425;-55
2021/10/06 04:37:27;;;;;;;3.10;1.20;;;;;;;11.92;88.82;96365.22;5053376;28;20170;-59
2021/10/06 04:39:52;;;;;;;3.20;1.50;;;;;;;11.94;88.55;96368.41;5053066;28;20207;-55
2021/10/06 04:42:18;;;;;;;2.57;0.97;;;;;;;11.82;90.01;96366.84;5053160;28;20202;-59
2021/10/06 04:44:43;;;;;;;4.33;1.00;;;;;;;11.70;89.59;96363.44;5052874;28;20205;-55
2021/10/06 04:47:09;;;;;;;2.10;1.00;;;;;;;11.65;90.64;96369.41;5053272;28;20661;-58
2021/10/06 04:49:34;;;;;;;1.90;0.90;;;;;;;11.59;90.38;96367.69;5053189;28;20182;-56
2021/10/06 04:51:59;;;;;;;5.03;1.17;;;;;;;11.39;91.64;96369.88;5053074;28;20262;-54
2021/10/06 04:54:25;;;;;;;2.43;1.30;;;;;;;11.43;91.35;96372.84;5052833;28;20587;-59
2021/10/06 04:56:50;;;;;;;4.60;1.20;;;;;;;11.31;91.94;96378.09;5052998;28;20652;-55
2021/10/06 04:59:16;;;;;;;2.87;1.10;;;;;;;11.34;91.71;96380.28;5053042;28;20222;-59
2021/10/06 05:01:41;;;;;;;2.20;0.97;;;;;;;11.32;92.06;96380.50;5053237;28;20172;-55
2021/10/06 05:04:07;;;;;;;0.97;0.97;;;;;;;11.11;93.01;96382.91;5052600;28;20527;-55
2021/10/06 05:06:32;;;;;;;0.97;0.97;;;;;;;11.32;92.12;96379.72;5052802;28;20194;-59
2021/10/06 05:08:58;;;;;;;2.00;1.10;;;;;;;11.43;91.81;96372.84;5051544;28;20203;-55
2021/10/06 05:11:24;;;;;;;2.80;1.63;;;;;;;11.52;91.12;96380.16;5053001;28;20180;-59
2021/10/06 05:13:50;;;;;;;1.07;0.97;;;;;;;11.69;91.01;96386.34;5052461;28;20175;-55
2021/10/06 05:16:16;;;;;;;3.80;1.33;;;;;;;11.74;90.74;96389.06;5056793;28;20437;-59
2021/10/06 05:18:41;;;;;;;3.47;1.30;;;;;;;11.64;90.53;96390.66;5056444;28;20414;-55
2021/10/06 05:21:06;;;;;;;1.10;1.10;;;;;;;11.68;90.60;96399.72;5056486;28;20402;-55
2021/10/06 05:23:32;;;;;;;2.10;1.27;;;;;;;11.57;91.43;96400.50;5056202;28;20301;-59
2021/10/06 05:25:58;;;;;;;2.10;1.43;;;;;;;11.72;90.61;96398.25;5055134;28;20191;-60
2021/10/06 05:28:23;;;;;;;2.00;1.10;;;;;;;11.77;90.12;96408.88;5055047;28;20196;-55
2021/10/06 05:30:48;;;;;;;1.67;1.03;;;;;;;11.80;91.10;96414.47;5056580;28;20176;-59
2021/10/06 05:33:14;;;;;;;3.37;1.10;;;;;;;11.85;90.20;96409.31;5056061;28;20171;-55
2021/10/06 05:35:40;;;;;;;2.93;1.60;;;;;;;11.80;89.72;96411.84;5056264;28;20275;-55
2021/10/06 05:38:06;;;;;;;1.47;1.10;;;;;;;11.84;90.44;96418.25;5056413;28;20172;-55
2021/10/06 05:40:31;;;;;;;4.70;1.30;;;;;;;11.76;90.32;96423.84;5055206;28;20416;-55
2021/10/06 05:42:57;;;;;;;3.10;1.20;;;;;;;11.80;90.12;96424.19;5055882;28;20210;-55
2021/10/06 05:45:23;;;;;;;1.50;1.20;;;;;;;11.88;90.06;96426.47;5056131;28;20191;-55
2021/10/06 05:47:48;;;;;;;5.03;1.30;;;;;;;11.77;90.21;96427.28;5055831;28;20184;-55
2021/10/06 05:50:14;;;;;;;2.07;1.63;;;;;;;11.38;91.42;96415.59;5055976;28;20181;-60
2021/10/06 05:52:39;;;;;;;1.20;1.13;;;;;;;11.59;91.23;96416.88;5055854;28;20549;-55
2021/10/06 05:55:05;;;;;;;1.60;1.13;;;;;;;11.46;91.32;96423.16;5056282;28;20214;-55
2021/10/06 05:57:30;;;;;;;1.53;1.20;;;;;;;11.53;90.98;96428.31;5056190;28;20175;-55
2021/10/06 05:59:56;;;;;;;1.87;1.40;;;;;;;11.48;91.90;96430.84;5056003;28;20186;-55
2021/10/06 06:02:21;;;;;;;2.60;1.43;;;;;;;11.53;91.25;96433.56;5055955;28;20253;-59
2021/10/06 06:04:46;;;;;;;1.40;1.20;;;;;;;11.56;91.06;96436.53;5055250;28;20198;-59
2021/10/06 06:07:12;;;;;;;1.73;0.93;;;;;;;11.57;91.10;96439.97;5055811;28;20163;-59
2021/10/06 06:09:37;;;;;;;6.23;1.40;;;;;;;11.78;89.78;96444.69;5055738;28;20210;-59
2021/10/06 06:12:06;;;;;;;3.40;1.37;;;;;;;11.61;89.90;96447.19;5055762;28;20163;-55
2021/10/06 06:14:32;;;;;;;1.20;1.07;;;;;;;11.47;90.79;96445.03;5055250;28;20163;-55
2021/10/06 06:16:57;;;;;;;1.43;1.00;;;;;;;11.35;91.28;96445.81;5055666;28;20489;-58
2021/10/06 06:19:24;;;;;;;2.10;1.00;;;;;;;11.51;89.89;96452.22;5055650;28;20521;-55
2021/10/06 06:21:50;;;;;;;1.23;1.07;;;;;;;11.35;90.66;96439.75;5055428;28;20174;-55
2021/10/06 06:24:15;;;;;;;3.10;1.30;;;;;;;11.41;91.08;96449.38;5055045;28;20418;-55
2021/10/06 06:26:41;;;;;;;2.63;1.33;;;;;;;11.34;90.57;96446.06;5055266;28;20213;-59
2021/10/06 06:29:06;;;;;;;2.23;1.10;;;;;;;11.53;90.02;96444.09;5055290;28;20205;-59
2021/10/06 06:31:31;;;;;;;4.00;1.47;;;;;;;11.63;89.91;96447.75;5054213;28;20258;-59
2021/10/06 06:33:57;;;;;;;2.40;0.90;;;;;;;11.76;89.07;96457.28;5053509;28;20167;-55
2021/10/06 06:36:22;;;;;;;2.37;1.57;;;;;;;11.65;89.34;96458.09;5055208;28;20262;-59
2021/10/06 06:38:48;;;;;;;1.97;1.30;;;;;;;11.65;89.66;96463.38;5055248;28;20233;-55
2021/10/06 06:41:13;;;;;;;2.50;1.87;;;;;;;11.73;89.00;96460.38;5053910;28;20601;-55
2021/10/06 06:43:39;;;;;;;1.63;1.53;;;;;;;11.60;89.54;96464.00;5054685;28;20226;-55
2021/10/06 06:46:05;;;;;;;4.30;1.50;;;;;;;11.68;89.48;96470.78;5054860;28;20183;-59
2021/10/06 06:48:30;;;;;;;4.90;1.30;;;;;;;11.73;88.87;96474.34;5054920;28;20184;-55
2021/10/06 06:50:57;;;;;;;3.77;3.43;;;;;;;11.37;90.67;96470.06;5054767;28;20218;-55
2021/10/06 06:53:26;;;;;;;1.67;1.10;;;;;;;11.27;91.20;96469.81;5054562;28;20244;-59
2021/10/06 06:55:55;;;;;;;1.83;1.17;;;;;;;11.39;91.28;96475.88;5053499;28;20426;-55
2021/10/06 06:58:21;;;;;;;4.57;1.30;;;;;;;11.39;91.10;96485.63;5054832;28;20402;-59
2021/10/06 07:00:48;;;;;;;1.50;0.93;;;;;;;11.55;91.12;96478.88;5054744;28;20404;-59
2021/10/06 07:03:13;;;;;;;2.60;1.10;;;;;;;11.57;90.81;96485.53;5054291;28;20508;-55
2021/10/06 07:05:39;;;;;;;1.30;1.20;;;;;;;11.78;90.33;96489.44;5054505;28;20589;-59
2021/10/06 07:08:04;;;;;;;3.10;1.13;;;;;;;11.91;90.05;96495.28;5054631;28;20187;-59
2021/10/06 07:10:30;;;;;;;2.70;1.40;;;;;;;11.87;89.60;96494.13;5054663;28;20608;-59
2021/10/06 07:12:56;;;;;;;2.40;1.37;;;;;;;11.81;89.71;96497.66;5054221;28;20225;-55
2021/10/06 07:15:21;;;;;;;5.00;1.30;;;;;;;11.98;89.17;96501.22;5054390;28;20430;-59
2021/10/06 07:17:46;;;;;;;1.83;1.13;;;;;;;11.95;89.33;96501.69;5053257;28;20528;-55
2021/10/06 07:20:12;;;;;;;2.10;1.10;;;;;;;11.90;88.58;96495.50;5054524;28;20228;-59
2021/10/06 07:22:38;;;;;;;2.23;1.23;;;;;;;12.07;89.45;96497.19;5053922;28;20175;-55
2021/10/06 07:25:04;;;;;;;1.47;1.03;;;;;;;12.19;88.64;96508.50;5054209;28;20194;-55
2021/10/06 07:27:30;;;;;;;1.50;0.93;;;;;;;12.27;88.51;96502.09;5054177;28;20735;-59
2021/10/06 07:29:55;;;;;;;1.60;1.10;;;;;;;12.20;88.34;96507.50;5054260;28;20418;-55
2021/10/06 07:32:20;;;;;;;2.40;1.40;;;;;;;12.14;88.73;96516.31;5053912;28;20230;-55
2021/10/06 07:34:46;;;;;;;1.73;1.10;;;;;;;12.39;87.66;96519.47;5053756;28;20175;-55
2021/10/06 07:37:11;;;;;;;2.20;1.00;;;;;;;12.36;87.45;96525.22;5052373;28;20242;-55
2021/10/06 07:39:37;;;;;;;2.77;1.00;;;;;;;12.49;86.80;96525.97;5053979;28;20254;-59
2021/10/06 07:42:02;;;;;;;4.20;1.40;;;;;;;12.57;86.28;96536.16;5054104;28;20172;-55
2021/10/06 07:44:28;;;;;;;6.63;1.30;;;;;;;12.39;87.92;96535.28;5053448;28;20649;-58
2021/10/06 07:46:53;;;;;;;1.93;1.50;;;;;;;12.24;88.13;96540.25;5053649;28;20206;-55
2021/10/06 07:49:19;;;;;;;2.13;1.33;;;;;;;12.23;88.73;96541.25;5053599;28;20227;-55
2021/10/06 07:51:44;;;;;;;5.43;1.97;;;;;;;12.33;89.15;96540.69;5053925;28;20179;-55
2021/10/06 07:54:10;;;;;;;2.57;1.50;;;;;;;12.37;87.92;96544.47;5053560;28;20213;-55
2021/10/06 07:56:35;;;;;;;2.87;1.50;;;;;;;12.37;88.11;96547.09;5053785;28;20183;-59
2021/10/06 07:59:00;;;;;;;4.00;1.40;;;;;;;12.33;84.89;96541.50;5053589;28;20647;-55
2021/10/06 08:01:26;;;;;;;0.90;0.90;;;;;;;12.51;84.34;96548.44;5054177;28;20210;-55
2021/10/06 08:03:51;;;;;;;4.50;1.80;;;;;;;12.40;82.43;96552.72;5052014;28;20305;-59
2021/10/06 08:06:17;;;;;;;2.20;1.00;;;;;;;12.47;82.24;96557.03;5053330;28;20179;-59
2021/10/06 08:08:42;;;;;;;2.83;1.20;;;;;;;12.43;82.52;96566.47;5053492;28;20191;-59
2021/10/06 08:11:08;;;;;;;2.97;1.03;;;;;;;12.54;81.77;96565.63;5053634;28;20175;-59
2021/10/06 08:13:33;;;;;;;3.50;1.10;;;;;;;12.70;80.43;96560.41;5053095;28;20545;-59
2021/10/06 08:15:58;;;;;;;1.47;0.80;;;;;;;12.68;81.15;96567.75;5053298;28;20187;-59
2021/10/06 08:18:24;;;;;;;2.53;0.90;;;;;;;12.78;79.62;96553.97;5053578;28;20276;-55
2021/10/06 08:20:52;;;;;;;4.50;1.43;;;;;;;12.73;81.31;96567.88;5053388;28;20163;-60
2021/10/06 08:23:18;;;;;;;3.10;0.87;;;;;;;12.78;81.31;96567.16;5052989;28;20225;-55
2021/10/06 08:25:45;;;;;;;4.03;0.90;;;;;;;12.76;81.14;96574.50;5053106;28;20428;-59
2021/10/06 08:28:10;;;;;;;4.50;1.00;;;;;;;12.65;80.41;96576.13;5053073;28;20580;-60
2021/10/06 08:30:36;;;;;;;2.73;0.90;;;;;;;12.83;80.94;96583.06;5053373;28;20516;-59
2021/10/06 08:33:01;;;;;;;2.80;1.30;;;;;;;13.10;80.58;96586.81;5052684;28;20168;-60
2021/10/06 08:35:27;;;;;;;2.40;1.00;;;;;;;13.04;80.50;96596.47;5053400;28;20191;-59
2021/10/06 08:37:53;;;;;;;2.50;1.07;;;;;;;13.05;80.41;96598.06;5053317;28;20163;-54
2021/10/06 08:40:18;;;;;;;2.37;0.80;;;;;;;13.02;79.78;96600.34;5052261;28;20174;-59
2021/10/06 08:42:44;;;;;;;1.83;0.70;;;;;;;12.82;80.44;96594.69;5052894;28;20213;-59
2021/10/06 08:45:10;;;;;;;2.20;1.10;;;;;;;13.06;80.60;96598.88;5053157;28;20214;-55
2021/10/06 08:47:40;;;;;;;2.80;1.43;;;;;;;12.99;81.22;96601.59;5051758;28;20944;-55
2021/10/06 08:50:09;;;;;;;3.60;0.77;;;;;;;12.99;81.14;96604.25;5055334;28;20501;-55
2021/10/06 08:52:35;;;;;;;3.60;0.93;;;;;;;13.10;80.59;96600.00;5056816;28;20413;-57
2021/10/06 08:55:02;;;;;;;1.90;1.17;;;;;;;12.94;81.35;96606.78;5056931;28;20429;-59
2021/10/06 08:57:28;;;;;;;1.80;1.20;;;;;;;12.91;80.60;96609.91;5057166;28;20175;-59
2021/10/06 08:59:53;;;;;;;2.53;0.90;;;;;;;12.81;82.08;96611.53;5056889;28;20896;-59
2021/10/06 09:02:18;;;;;;;4.33;1.17;;;;;;;12.77;82.38;96603.25;5057129;28;20728;-59
2021/10/06 09:04:47;;;;;;;1.90;1.00;;;;;;;12.78;81.25;96609.34;5056572;28;20175;-55
2021/10/06 09:07:12;;;;;;;1.10;1.00;;;;;;;12.85;81.12;96602.91;5056797;28;20179;-60
2021/10/06 09:09:38;;;;;;;3.17;0.90;;;;;;;13.06;81.52;96612.06;5056930;28;20425;-59
2021/10/06 09:12:16;;;;;;;4.60;1.00;;;;;;;12.93;80.33;96612.31;5056847;28;20206;-55
2021/10/06 09:14:44;;;;;;;7.03;1.13;;;;;;;12.93;79.30;96612.31;5056282;28;20213;-55
2021/10/06 09:17:12;;;;;;;4.50;1.00;;;;;;;12.77;77.80;96613.03;5056641;28;20417;-55
2021/10/06 09:19:45;;;;;;;2.83;1.10;;;;;;;12.72;79.56;96610.31;5056796;28;20428;-59
2021/10/06 09:22:22;;;;;;;2.33;1.20;;;;;;;12.92;79.32;96608.03;5056731;28;20413;-59
2021/10/06 09:25:03;;;;;;;2.00;0.90;;;;;;;13.13;76.91;96610.09;5056287;28;20409;-59
2021/10/06 09:27:31;;;;;;;4.63;1.10;;;;;;;13.16;75.49;96606.97;5056164;28;20421;-55
2021/10/06 09:30:03;;;;;;;4.80;1.17;;;;;;;13.34;75.15;96604.16;5056485;28;20504;-60
2021/10/06 09:32:41;;;;;;;6.90;2.20;;;;;;;13.30;74.08;96611.72;5056490;28;20406;-55
2021/10/06 09:35:13;;;;;;;5.67;1.23;;;;;;;13.59;75.01;96609.88;5056331;28;20425;-55
2021/10/06 09:37:43;;;;;;;2.00;0.87;;;;;;;13.63;73.00;96607.56;5056264;28;20409;-60
2021/10/06 09:40:10;;;;;;;5.70;1.23;;;;;;;13.70;73.52;96609.00;5056377;28;20395;-55
2021/10/06 09:42:46;;;;;;;3.70;0.87;;;;;;;13.66;72.80;96613.16;5056011;28;20767;-55
2021/10/06 09:45:24;;;;;;;1.80;0.97;;;;;;;13.84;69.76;96620.06;5056116;28;20528;-55
2021/10/06 09:48:15;;;;;;;4.23;0.87;;;;;;;13.69;69.64;96620.63;5056194;28;20445;-60
2021/10/06 09:50:47;;;;;;;3.67;1.17;;;;;;;13.78;70.10;96619.19;5054868;28;20484;-55
2021/10/06 09:53:15;;;;;;;1.80;0.80;;;;;;;13.88;71.05;96623.81;5055611;28;20418;-59
2021/10/06 09:55:45;;;;;;;0.63;0.57;;;;;;;13.85;72.44;96619.84;5055912;28;20430;-60
2021/10/06 09:58:12;;;;;;;3.20;1.00;;;;;;;13.84;71.74;96620.84;5056096;28;20429;-59
2021/10/06 10:00:40;;;;;;;2.00;0.80;;;;;;;14.19;72.09;96620.63;5055285;28;20418;-59
2021/10/06 10:03:06;;;;;;;2.30;0.70;;;;;;;14.23;70.81;96630.47;5055591;28;20751;-59
2021/10/06 10:05:33;;;;;;;1.97;0.90;;;;;;;14.05;70.32;96630.72;5055683;28;20437;-55
2021/10/06 10:07:59;;;;;;;2.27;1.10;;;;;;;13.90;70.96;96635.75;5055519;28;20688;-59
2021/10/06 10:10:24;;;;;;;1.13;0.87;;;;;;;13.78;70.50;96640.31;5055505;28;20418;-55
2021/10/06 10:12:50;;;;;;;4.27;0.90;;;;;;;13.85;70.38;96645.44;5055370;28;20206;-59
2021/10/06 10:15:19;;;;;;;2.07;0.70;;;;;;;13.70;71.09;96645.16;5055431;28;20321;-55
2021/10/06 10:17:45;;;;;;;1.27;0.73;;;;;;;13.69;71.14;96648.84;5055670;28;20209;-60
2021/10/06 10:20:14;;;;;;;3.23;0.90;;;;;;;13.71;70.64;96650.22;5055356;28;20492;-55
2021/10/06 10:22:55;;;;;;;2.43;1.10;;;;;;;13.92;71.74;96649.53;5055270;28;20402;-56
2021/10/06 10:25:23;;;;;;;2.23;0.90;;;;;;;13.88;69.96;96651.03;5055291;28;20426;-59
2021/10/06 10:28:20;;;;;;;1.80;0.70;;;;;;;14.06;70.59;96660.56;5055205;28;20466;-55
2021/10/06 10:30:55;;;;;;;4.57;1.00;;;;;;;14.03;70.52;96650.50;5055152;28;20434;-55
2021/10/06 10:33:40;;;;;;;2.10;1.03;;;;;;;14.12;69.80;96668.34;5054912;28;20444;-60
2021/10/06 10:36:39;;;;;;;1.60;1.37;;;;;;;14.04;72.25;96670.59;5055032;28;20937;-55
2021/10/06 10:39:25;;;;;;;2.30;0.93;;;;;;;13.48;79.15;96686.50;5055240;28;20891;-55
2021/10/06 10:41:55;;;;;;;3.13;1.00;;;;;;;13.47;81.05;96677.78;5051159;28;20426;-60
2021/10/06 10:44:25;;;;;;;1.07;0.83;;;;;;;13.68;82.60;96681.59;5054879;28;20410;-55
2021/10/06 10:46:59;;;;;;;1.60;0.73;;;;;;;13.78;81.47;96677.28;5054889;28;20434;-60
2021/10/06 10:49:26;;;;;;;1.83;1.00;;;;;;;13.88;82.18;96677.47;5055051;28;20862;-60
2021/10/06 10:51:58;;;;;;;3.20;1.00;;;;;;;13.94;82.05;96679.16;5055058;28;20425;-60
2021/10/06 10:54:46;;;;;;;1.37;0.80;;;;;;;14.03;79.49;96684.84;5054468;28;20491;-55
2021/10/06 10:57:29;;;;;;;2.33;0.90;;;;;;;13.90;77.66;96675.38;5055177;28;20410;-61
2021/10/06 10:59:57;;;;;;;1.47;0.90;;;;;;;14.06;77.62;96684.34;5055025;28;20594;-55
2021/10/06 11:02:40;;;;;;;3.53;0.90;;;;;;;13.94;76.91;96684.44;5054866;28;20468;-55
